createdAt,value
2022-12-01T00:00:48.673Z,99.99
2022-12-01T00:01:48.811Z,99.99
2022-12-01T00:02:48.754Z,99.99
2022-12-01T00:03:48.625Z,99.99
2022-12-01T00:04:48.622Z,99.99
2022-12-01T00:05:48.614Z,99.99
2022-12-01T00:06:48.597Z,99.99
2022-12-01T00:07:48.672Z,99.99
2022-12-01T00:08:48.576Z,99.99
2022-12-01T00:09:48.864Z,99.99
2022-12-01T00:10:48.563Z,99.99
2022-12-01T00:11:48.549Z,99.99
2022-12-01T00:12:48.534Z,99.99
2022-12-01T00:13:48.516Z,99.99
2022-12-01T00:14:48.514Z,99.99
2022-12-01T00:15:48.505Z,99.99
2022-12-01T00:16:48.531Z,99.99
2022-12-01T00:17:48.499Z,99.99
2022-12-01T00:18:48.466Z,99.99
2022-12-01T00:19:48.673Z,99.99
2022-12-01T00:20:48.448Z,99.99
2022-12-01T00:21:48.433Z,99.99
2022-12-01T00:22:48.416Z,99.99
2022-12-01T00:23:48.411Z,99.99
2022-12-01T00:24:48.394Z,99.99
2022-12-01T00:25:48.399Z,99.99
2022-12-01T00:26:48.372Z,99.99
2022-12-01T00:27:48.390Z,99.99
2022-12-01T00:28:48.350Z,99.99
2022-12-01T00:29:48.642Z,99.99
2022-12-01T00:30:48.341Z,99.99
2022-12-01T00:31:48.379Z,99.99
2022-12-01T00:32:48.305Z,99.99
2022-12-01T00:33:48.300Z,99.99
2022-12-01T00:34:48.286Z,99.99
2022-12-01T00:35:48.288Z,99.99
2022-12-01T00:36:48.267Z,99.99
2022-12-01T00:37:48.258Z,99.99
2022-12-01T00:38:48.240Z,99.99
2022-12-01T00:39:48.606Z,99.99
2022-12-01T00:40:48.230Z,99.99
2022-12-01T00:41:48.215Z,99.99
2022-12-01T00:42:48.197Z,99.99
2022-12-01T00:43:48.188Z,99.99
2022-12-01T00:44:48.175Z,99.99
2022-12-01T00:45:48.280Z,99.99
2022-12-01T00:46:48.154Z,99.99
2022-12-01T00:47:48.145Z,99.99
2022-12-01T00:48:48.134Z,99.99
2022-12-01T00:49:48.417Z,99.99
2022-12-01T00:50:48.108Z,99.99
2022-12-01T00:51:48.114Z,99.99
2022-12-01T00:52:48.085Z,99.99
2022-12-01T00:53:48.080Z,99.99
2022-12-01T00:54:48.063Z,99.99
2022-12-01T00:55:48.066Z,99.99
2022-12-01T00:56:48.051Z,99.99
2022-12-01T00:57:48.035Z,99.99
2022-12-01T00:58:48.021Z,99.99
2022-12-01T00:59:48.438Z,99.99
2022-12-01T01:00:48.027Z,99.99
2022-12-01T01:01:48.120Z,99.99
2022-12-01T01:02:48.024Z,99.99
2022-12-01T01:03:47.967Z,99.99
2022-12-01T01:04:47.953Z,99.99
2022-12-01T01:05:47.950Z,99.99
2022-12-01T01:06:47.949Z,99.99
2022-12-01T01:07:47.990Z,99.99
2022-12-01T01:08:47.910Z,99.99
2022-12-01T01:09:48.313Z,99.99
2022-12-01T01:10:47.887Z,99.99
2022-12-01T01:11:47.894Z,99.99
2022-12-01T01:12:47.866Z,99.99
2022-12-01T01:13:47.861Z,99.99
2022-12-01T01:14:47.843Z,99.99
2022-12-01T01:15:47.835Z,99.99
2022-12-01T01:16:47.871Z,99.99
2022-12-01T01:17:47.813Z,99.99
2022-12-01T01:18:47.805Z,99.99
2022-12-01T01:19:48.165Z,99.99
2022-12-01T01:20:47.775Z,99.99
2022-12-01T01:21:47.782Z,99.99
2022-12-01T01:22:47.755Z,99.99
2022-12-01T01:23:47.750Z,99.99
2022-12-01T01:24:47.747Z,99.99
2022-12-01T01:25:47.724Z,99.99
2022-12-01T01:26:47.720Z,99.99
2022-12-01T01:27:47.705Z,99.99
2022-12-01T01:28:47.686Z,99.99
2022-12-01T01:29:48.102Z,99.99
2022-12-01T01:30:47.795Z,99.99
2022-12-01T01:31:47.669Z,99.99
2022-12-01T01:32:47.646Z,99.99
2022-12-01T01:33:47.648Z,99.99
2022-12-01T01:34:47.624Z,99.99
2022-12-01T01:35:47.616Z,99.99
2022-12-01T01:36:47.634Z,99.99
2022-12-01T01:37:47.595Z,99.99
2022-12-01T01:38:47.577Z,99.99
2022-12-01T01:39:47.904Z,99.99
2022-12-01T01:40:47.559Z,99.99
2022-12-01T01:41:47.558Z,99.99
2022-12-01T01:42:47.533Z,99.99
2022-12-01T01:43:47.542Z,99.99
2022-12-01T01:44:47.514Z,99.99
2022-12-01T01:45:47.563Z,99.99
2022-12-01T01:46:47.499Z,99.99
2022-12-01T01:47:47.488Z,99.99
2022-12-01T01:48:47.471Z,99.99
2022-12-01T01:49:47.759Z,99.99
2022-12-01T01:50:47.444Z,99.99
2022-12-01T01:51:47.447Z,99.99
2022-12-01T01:52:47.428Z,99.99
2022-12-01T01:53:47.415Z,99.99
2022-12-01T01:54:47.407Z,99.99
2022-12-01T01:55:47.390Z,99.99
2022-12-01T01:56:47.394Z,99.99
2022-12-01T01:57:47.366Z,99.99
2022-12-01T01:58:47.362Z,99.99
2022-12-01T01:59:47.682Z,99.99
2022-12-01T02:00:47.339Z,99.99
2022-12-01T02:01:47.446Z,99.99
2022-12-01T02:02:47.392Z,99.99
2022-12-01T02:03:47.305Z,99.99
2022-12-01T02:04:47.298Z,99.99
2022-12-01T02:05:47.279Z,99.99
2022-12-01T02:06:47.274Z,99.99
2022-12-01T02:07:47.315Z,99.99
2022-12-01T02:08:47.250Z,99.99
2022-12-01T02:09:47.580Z,99.99
2022-12-01T02:10:47.229Z,99.99
2022-12-01T02:11:47.214Z,99.99
2022-12-01T02:12:47.218Z,99.99
2022-12-01T02:13:47.193Z,99.99
2022-12-01T02:14:47.189Z,99.99
2022-12-01T02:15:47.172Z,99.99
2022-12-01T02:16:47.180Z,99.99
2022-12-01T02:17:47.189Z,99.99
2022-12-01T02:18:47.141Z,99.99
2022-12-01T02:19:47.579Z,99.99
2022-12-01T02:20:47.119Z,99.99
2022-12-01T02:21:47.104Z,99.99
2022-12-01T02:22:52.171Z,99.99
2022-12-01T02:23:47.086Z,99.99
2022-12-01T02:24:47.078Z,99.99
2022-12-01T02:25:47.060Z,99.99
2022-12-01T02:26:47.053Z,99.99
2022-12-01T02:27:47.045Z,99.99
2022-12-01T02:28:47.029Z,99.99
2022-12-01T02:29:47.218Z,99.99
2022-12-01T02:30:47.036Z,99.99
2022-12-01T02:31:46.995Z,99.99
2022-12-01T02:32:47.000Z,99.99
2022-12-01T02:33:46.972Z,99.99
2022-12-01T02:34:46.964Z,99.99
2022-12-01T02:35:46.951Z,99.99
2022-12-01T02:36:46.940Z,99.99
2022-12-01T02:37:46.934Z,99.99
2022-12-01T02:38:46.922Z,99.99
2022-12-01T02:39:47.301Z,99.99
2022-12-01T02:40:46.906Z,99.99
2022-12-01T02:41:46.883Z,99.99
2022-12-01T02:42:46.888Z,99.99
2022-12-01T02:43:46.859Z,99.99
2022-12-01T02:44:46.852Z,99.99
2022-12-01T02:45:46.911Z,99.99
2022-12-01T02:46:46.831Z,99.99
2022-12-01T02:47:46.825Z,99.99
2022-12-01T02:48:46.812Z,99.99
2022-12-01T02:49:46.994Z,99.99
2022-12-01T02:50:46.788Z,99.99
2022-12-01T02:51:46.771Z,99.99
2022-12-01T02:52:46.777Z,99.99
2022-12-01T02:53:46.755Z,99.99
2022-12-01T02:54:46.743Z,99.99
2022-12-01T02:55:46.726Z,99.99
2022-12-01T02:56:46.729Z,99.99
2022-12-01T02:57:46.722Z,99.99
2022-12-01T02:58:46.700Z,99.99
2022-12-01T02:59:47.187Z,99.99
2022-12-01T03:00:46.677Z,99.99
2022-12-01T03:01:46.688Z,99.99
2022-12-01T03:02:46.703Z,99.99
2022-12-01T03:03:46.649Z,99.99
2022-12-01T03:04:46.638Z,99.99
2022-12-01T03:05:46.620Z,99.99
2022-12-01T03:06:46.612Z,99.99
2022-12-01T03:07:46.631Z,99.99
2022-12-01T03:08:46.623Z,99.99
2022-12-01T03:09:47.016Z,99.99
2022-12-01T03:10:46.564Z,99.99
2022-12-01T03:11:46.550Z,99.99
2022-12-01T03:12:46.544Z,99.99
2022-12-01T03:13:46.538Z,99.99
2022-12-01T03:14:46.522Z,99.99
2022-12-01T03:15:46.569Z,99.99
2022-12-01T03:16:46.500Z,99.99
2022-12-01T03:17:46.483Z,99.99
2022-12-01T03:18:46.487Z,99.99
2022-12-01T03:19:46.742Z,99.99
2022-12-01T03:20:46.450Z,99.99
2022-12-01T03:21:46.446Z,99.99
2022-12-01T03:22:46.431Z,99.99
2022-12-01T03:23:52.471Z,99.99
2022-12-01T03:24:46.407Z,99.99
2022-12-01T03:25:46.402Z,99.99
2022-12-01T03:26:46.383Z,99.99
2022-12-01T03:28:13.515Z,99.99
2022-12-01T03:28:46.377Z,99.99
2022-12-01T03:29:46.557Z,99.99
2022-12-01T03:30:46.343Z,99.99
2022-12-01T03:31:46.409Z,99.99
2022-12-01T03:32:46.318Z,99.99
2022-12-01T03:33:46.323Z,99.99
2022-12-01T03:34:46.296Z,99.99
2022-12-01T03:35:46.289Z,99.99
2022-12-01T03:36:46.274Z,99.99
2022-12-01T03:37:46.267Z,99.99
2022-12-01T03:38:46.262Z,99.99
2022-12-01T03:39:46.443Z,99.99
2022-12-01T03:40:46.233Z,99.99
2022-12-01T03:41:46.225Z,99.99
2022-12-01T03:42:46.209Z,99.99
2022-12-01T03:43:46.213Z,99.99
2022-12-01T03:44:46.186Z,99.99
2022-12-01T03:45:46.215Z,99.99
2022-12-01T03:46:46.179Z,99.99
2022-12-01T03:47:46.158Z,99.99
2022-12-01T03:48:46.162Z,99.99
2022-12-01T03:49:46.446Z,99.99
2022-12-01T03:50:46.119Z,99.99
2022-12-01T03:51:46.114Z,99.99
2022-12-01T03:52:46.100Z,99.99
2022-12-01T03:53:46.092Z,99.99
2022-12-01T03:54:46.087Z,99.99
2022-12-01T03:55:46.068Z,99.99
2022-12-01T03:56:46.052Z,99.99
2022-12-01T03:57:46.055Z,99.99
2022-12-01T03:58:46.033Z,99.99
2022-12-01T03:59:46.174Z,99.99
2022-12-01T04:00:46.053Z,99.99
2022-12-01T04:01:46.094Z,99.99
2022-12-01T04:02:46.035Z,99.99
2022-12-01T04:03:45.979Z,99.99
2022-12-01T04:04:45.979Z,99.99
2022-12-01T04:05:45.960Z,99.99
2022-12-01T04:06:45.944Z,99.99
2022-12-01T04:07:45.969Z,99.99
2022-12-01T04:08:45.921Z,99.99
2022-12-01T04:09:46.141Z,99.99
2022-12-01T04:10:45.898Z,99.99
2022-12-01T04:11:45.893Z,99.99
2022-12-01T04:12:45.877Z,99.99
2022-12-01T04:13:45.870Z,99.99
2022-12-01T04:14:45.873Z,99.99
2022-12-01T04:15:45.872Z,99.99
2022-12-01T04:16:45.838Z,99.99
2022-12-01T04:17:45.841Z,99.99
2022-12-01T04:18:45.810Z,99.99
2022-12-01T04:19:45.835Z,99.99
2022-12-01T04:20:45.788Z,99.99
2022-12-01T04:21:45.783Z,99.99
2022-12-01T04:22:45.773Z,99.99
2022-12-01T04:23:45.861Z,99.99
2022-12-01T04:24:45.824Z,99.99
2022-12-01T04:25:45.797Z,99.99
2022-12-01T04:26:45.734Z,99.99
2022-12-01T04:27:45.737Z,99.99
2022-12-01T04:28:45.699Z,99.99
2022-12-01T04:29:45.867Z,99.99
2022-12-01T04:30:45.684Z,99.99
2022-12-01T04:31:45.734Z,99.99
2022-12-01T04:32:45.695Z,99.99
2022-12-01T04:33:45.656Z,99.99
2022-12-01T04:34:45.692Z,99.99
2022-12-01T04:35:45.627Z,99.99
2022-12-01T04:36:45.610Z,99.99
2022-12-01T04:37:45.607Z,99.99
2022-12-01T04:38:45.588Z,99.99
2022-12-01T04:39:45.596Z,99.99
2022-12-01T04:40:45.568Z,99.99
2022-12-01T04:41:45.560Z,99.99
2022-12-01T04:42:45.545Z,99.99
2022-12-01T04:43:45.538Z,99.99
2022-12-01T04:44:45.533Z,99.99
2022-12-01T04:45:45.517Z,99.99
2022-12-01T04:46:45.545Z,99.99
2022-12-01T04:47:45.495Z,99.99
2022-12-01T04:48:45.478Z,99.99
2022-12-01T04:49:45.483Z,99.99
2022-12-01T04:50:45.456Z,99.99
2022-12-01T04:51:45.449Z,99.99
2022-12-01T04:52:45.435Z,99.99
2022-12-01T04:53:45.428Z,99.99
2022-12-01T04:54:45.425Z,99.99
2022-12-01T04:55:45.409Z,99.99
2022-12-01T04:56:45.389Z,99.99
2022-12-01T04:57:45.388Z,99.99
2022-12-01T04:58:45.462Z,99.99
2022-12-01T04:59:45.371Z,99.99
2022-12-01T05:00:45.407Z,99.99
2022-12-01T05:01:45.380Z,99.99
2022-12-01T05:02:45.335Z,99.99
2022-12-01T05:03:45.317Z,99.99
2022-12-01T05:04:45.312Z,99.99
2022-12-01T05:05:45.295Z,99.99
2022-12-01T05:06:45.287Z,99.99
2022-12-01T05:07:45.348Z,99.99
2022-12-01T05:08:45.256Z,99.99
2022-12-01T05:09:45.268Z,99.99
2022-12-01T05:10:45.236Z,99.99
2022-12-01T05:11:45.228Z,99.99
2022-12-01T05:12:45.211Z,99.99
2022-12-01T05:13:45.210Z,99.99
2022-12-01T05:14:45.190Z,99.99
2022-12-01T05:15:45.194Z,99.99
2022-12-01T05:16:45.318Z,99.99
2022-12-01T05:17:45.203Z,99.99
2022-12-01T05:18:45.200Z,99.99
2022-12-01T05:19:45.139Z,99.99
2022-12-01T05:20:45.138Z,99.99
2022-12-01T05:21:45.117Z,99.99
2022-12-01T05:23:04.981Z,99.99
2022-12-01T05:23:45.102Z,99.99
2022-12-01T05:24:45.085Z,99.99
2022-12-01T05:25:45.090Z,99.99
2022-12-01T05:26:45.058Z,99.99
2022-12-01T05:27:45.077Z,99.99
2022-12-01T05:28:45.045Z,99.99
2022-12-01T05:29:45.031Z,99.99
2022-12-01T05:30:45.026Z,99.99
2022-12-01T05:31:45.070Z,99.99
2022-12-01T05:32:44.993Z,99.99
2022-12-01T05:33:44.987Z,99.99
2022-12-01T05:34:44.972Z,99.99
2022-12-01T05:35:44.979Z,99.99
2022-12-01T05:36:44.948Z,99.99
2022-12-01T05:37:44.941Z,99.99
2022-12-01T05:38:44.927Z,99.99
2022-12-01T05:39:44.919Z,99.99
2022-12-01T05:40:44.913Z,99.99
2022-12-01T05:41:44.898Z,99.99
2022-12-01T05:42:44.881Z,99.99
2022-12-01T05:43:44.877Z,99.99
2022-12-01T05:44:44.858Z,99.99
2022-12-01T05:45:44.890Z,99.99
2022-12-01T05:46:44.837Z,99.99
2022-12-01T05:47:44.831Z,99.99
2022-12-01T05:48:44.816Z,99.99
2022-12-01T05:49:44.808Z,99.99
2022-12-01T05:50:44.810Z,99.99
2022-12-01T05:51:44.790Z,99.99
2022-12-01T05:52:44.773Z,99.99
2022-12-01T05:53:44.763Z,99.99
2022-12-01T05:54:44.751Z,99.99
2022-12-01T05:55:44.751Z,99.99
2022-12-01T05:56:44.727Z,99.99
2022-12-01T05:57:44.720Z,99.99
2022-12-01T05:58:44.706Z,99.99
2022-12-01T05:59:44.698Z,99.99
2022-12-01T06:00:46.211Z,99.99
2022-12-01T06:01:44.760Z,99.99
2022-12-01T06:02:44.672Z,99.99
2022-12-01T06:03:44.692Z,99.99
2022-12-01T06:04:44.639Z,99.99
2022-12-01T06:05:44.654Z,99.99
2022-12-01T06:06:44.621Z,99.99
2022-12-01T06:07:44.632Z,99.99
2022-12-01T06:08:44.602Z,99.99
2022-12-01T06:09:44.585Z,99.99
2022-12-01T06:10:44.588Z,99.99
2022-12-01T06:11:44.561Z,99.99
2022-12-01T06:12:44.556Z,99.99
2022-12-01T06:13:44.542Z,99.99
2022-12-01T06:14:44.618Z,99.99
2022-12-01T06:15:44.541Z,99.99
2022-12-01T06:16:44.550Z,99.99
2022-12-01T06:17:44.499Z,99.99
2022-12-01T06:18:44.516Z,99.99
2022-12-01T06:19:44.523Z,99.99
2022-12-01T06:20:44.470Z,99.99
2022-12-01T06:21:44.463Z,99.99
2022-12-01T06:22:44.445Z,99.99
2022-12-01T06:23:44.431Z,99.99
2022-12-01T06:24:44.420Z,99.99
2022-12-01T06:25:44.413Z,99.99
2022-12-01T06:26:44.406Z,99.99
2022-12-01T06:27:44.394Z,99.99
2022-12-01T06:28:44.375Z,99.99
2022-12-01T06:29:44.373Z,99.99
2022-12-01T06:30:44.356Z,99.99
2022-12-01T06:31:44.476Z,99.99
2022-12-01T06:32:44.332Z,99.99
2022-12-01T06:33:44.329Z,99.99
2022-12-01T06:34:44.311Z,99.99
2022-12-01T06:35:44.302Z,99.99
2022-12-01T06:36:44.304Z,99.99
2022-12-01T06:37:44.284Z,99.99
2022-12-01T06:38:44.265Z,99.99
2022-12-01T06:39:44.260Z,99.99
2022-12-01T06:40:44.243Z,99.99
2022-12-01T06:41:44.268Z,99.99
2022-12-01T06:42:44.227Z,99.99
2022-12-01T06:43:44.216Z,99.99
2022-12-01T06:44:44.202Z,99.99
2022-12-01T06:45:44.246Z,99.99
2022-12-01T06:46:44.187Z,99.99
2022-12-01T06:47:44.176Z,99.99
2022-12-01T06:48:44.159Z,99.99
2022-12-01T06:49:44.151Z,99.99
2022-12-01T06:50:44.141Z,99.99
2022-12-01T06:51:44.141Z,99.99
2022-12-01T06:52:44.116Z,99.99
2022-12-01T06:53:44.108Z,99.99
2022-12-01T06:54:44.092Z,99.99
2022-12-01T06:55:44.084Z,99.99
2022-12-01T06:56:44.081Z,99.99
2022-12-01T06:57:44.062Z,99.99
2022-12-01T06:58:44.051Z,99.99
2022-12-01T06:59:44.041Z,99.99
2022-12-01T07:00:48.983Z,99.99
2022-12-01T07:01:44.097Z,99.99
2022-12-01T07:02:44.084Z,99.99
2022-12-01T07:03:44.018Z,99.99
2022-12-01T07:04:43.986Z,99.99
2022-12-01T07:05:44.008Z,99.99
2022-12-01T07:06:43.970Z,99.99
2022-12-01T07:07:44.008Z,99.99
2022-12-01T07:08:43.937Z,99.99
2022-12-01T07:09:43.928Z,99.99
2022-12-01T07:10:43.914Z,99.99
2022-12-01T07:11:43.916Z,99.99
2022-12-01T07:12:43.893Z,99.99
2022-12-01T07:13:43.886Z,99.99
2022-12-01T07:14:43.872Z,99.99
2022-12-01T07:15:43.865Z,99.99
2022-12-01T07:16:43.893Z,99.99
2022-12-01T07:17:43.842Z,99.99
2022-12-01T07:18:43.828Z,99.99
2022-12-01T07:19:43.821Z,99.99
2022-12-01T07:20:43.808Z,99.99
2022-12-01T07:21:43.809Z,99.99
2022-12-01T07:22:43.785Z,99.99
2022-12-01T07:23:43.787Z,99.99
2022-12-01T07:24:43.763Z,99.99
2022-12-01T07:25:43.767Z,99.99
2022-12-01T07:26:43.825Z,99.99
2022-12-01T07:27:43.733Z,99.99
2022-12-01T07:28:43.719Z,99.99
2022-12-01T07:29:43.732Z,99.99
2022-12-01T07:30:43.748Z,99.99
2022-12-01T07:31:43.698Z,99.99
2022-12-01T07:32:43.683Z,99.99
2022-12-01T07:33:43.667Z,99.99
2022-12-01T07:34:43.652Z,99.99
2022-12-01T07:35:43.642Z,99.99
2022-12-01T07:36:43.648Z,99.99
2022-12-01T07:37:43.628Z,99.99
2022-12-01T07:38:43.606Z,99.99
2022-12-01T07:39:43.599Z,99.99
2022-12-01T07:40:43.602Z,99.99
2022-12-01T07:41:43.578Z,99.99
2022-12-01T07:42:43.649Z,99.99
2022-12-01T07:43:43.574Z,99.99
2022-12-01T07:44:43.539Z,99.99
2022-12-01T07:45:43.602Z,99.99
2022-12-01T07:46:43.606Z,99.99
2022-12-01T07:47:43.551Z,99.99
2022-12-01T07:48:43.497Z,99.99
2022-12-01T07:49:43.488Z,99.91
2022-12-01T07:50:43.474Z,99.70
2022-12-01T07:51:43.470Z,99.60
2022-12-01T07:52:43.461Z,99.29
2022-12-01T07:53:43.446Z,99.08
2022-12-01T07:54:43.430Z,98.97
2022-12-01T07:55:43.425Z,98.87
2022-12-01T07:56:43.409Z,98.87
2022-12-01T07:57:43.412Z,98.66
2022-12-01T07:58:43.392Z,98.66
2022-12-01T07:59:43.378Z,98.35
2022-12-01T08:00:43.362Z,98.15
2022-12-01T08:01:44.931Z,98.05
2022-12-01T08:02:43.422Z,97.94
2022-12-01T08:03:43.332Z,98.05
2022-12-01T08:04:43.373Z,98.05
2022-12-01T08:05:43.317Z,98.05
2022-12-01T08:06:43.332Z,98.05
2022-12-01T08:07:43.349Z,98.15
2022-12-01T08:08:43.279Z,97.74
2022-12-01T08:09:43.274Z,97.63
2022-12-01T08:10:43.252Z,97.63
2022-12-01T08:11:43.247Z,97.63
2022-12-01T08:12:43.267Z,97.63
2022-12-01T08:13:43.227Z,97.53
2022-12-01T08:14:43.210Z,97.53
2022-12-01T08:15:43.247Z,97.63
2022-12-01T08:16:43.185Z,97.42
2022-12-01T08:17:43.257Z,97.63
2022-12-01T08:18:43.175Z,97.74
2022-12-01T08:19:43.192Z,97.53
2022-12-01T08:20:43.141Z,97.74
2022-12-01T08:21:43.134Z,97.74
2022-12-01T08:22:43.140Z,97.94
2022-12-01T08:23:43.113Z,98.05
2022-12-01T08:24:43.099Z,97.94
2022-12-01T08:25:43.091Z,97.94
2022-12-01T08:26:43.076Z,97.84
2022-12-01T08:27:43.103Z,97.94
2022-12-01T08:28:43.052Z,97.84
2022-12-01T08:29:43.047Z,97.94
2022-12-01T08:30:43.074Z,97.94
2022-12-01T08:31:43.025Z,98.05
2022-12-01T08:32:43.021Z,98.15
2022-12-01T08:33:43.005Z,98.15
2022-12-01T08:34:42.991Z,98.25
2022-12-01T08:35:42.983Z,98.15
2022-12-01T08:36:42.967Z,98.15
2022-12-01T08:37:42.976Z,98.25
2022-12-01T08:38:42.944Z,98.25
2022-12-01T08:39:42.936Z,98.35
2022-12-01T08:40:42.921Z,98.25
2022-12-01T08:41:42.914Z,98.25
2022-12-01T08:42:42.902Z,98.46
2022-12-01T08:43:58.007Z,98.46
2022-12-01T08:44:42.987Z,98.56
2022-12-01T08:45:42.870Z,98.46
2022-12-01T08:46:42.876Z,98.35
2022-12-01T08:47:42.849Z,98.46
2022-12-01T08:48:42.844Z,98.46
2022-12-01T08:49:42.829Z,98.41
2022-12-01T08:50:42.811Z,98.25
2022-12-01T08:51:42.805Z,98.15
2022-12-01T08:52:42.789Z,98.15
2022-12-01T08:53:45.649Z,98.15
2022-12-01T08:54:42.766Z,98.35
2022-12-01T08:55:42.763Z,98.56
2022-12-01T08:56:42.745Z,98.52
2022-12-01T08:57:42.737Z,98.52
2022-12-01T08:58:42.743Z,98.52
2022-12-01T08:59:42.716Z,98.41
2022-12-01T09:00:42.713Z,98.31
2022-12-01T09:01:42.744Z,98.31
2022-12-01T09:02:42.745Z,98.25
2022-12-01T09:03:42.684Z,98.25
2022-12-01T09:04:42.662Z,98.35
2022-12-01T09:05:42.653Z,98.46
2022-12-01T09:06:42.636Z,98.46
2022-12-01T09:07:42.644Z,98.25
2022-12-01T09:08:42.728Z,98.66
2022-12-01T09:09:42.605Z,98.56
2022-12-01T09:10:42.590Z,98.77
2022-12-01T09:11:42.583Z,98.66
2022-12-01T09:12:42.569Z,98.87
2022-12-01T09:13:42.572Z,98.97
2022-12-01T09:14:42.546Z,98.97
2022-12-01T09:15:42.538Z,99.04
2022-12-01T09:16:42.600Z,98.83
2022-12-01T09:17:42.517Z,98.83
2022-12-01T09:18:42.513Z,98.77
2022-12-01T09:19:42.497Z,98.66
2022-12-01T09:20:42.480Z,98.77
2022-12-01T09:21:42.474Z,98.87
2022-12-01T09:22:42.460Z,98.97
2022-12-01T09:23:42.462Z,99.08
2022-12-01T09:24:42.441Z,99.18
2022-12-01T09:25:42.423Z,99.08
2022-12-01T09:26:42.418Z,98.97
2022-12-01T09:27:42.404Z,99.18
2022-12-01T09:28:48.478Z,99.08
2022-12-01T09:29:42.380Z,98.87
2022-12-01T09:30:42.381Z,98.97
2022-12-01T09:31:42.402Z,99.08
2022-12-01T09:32:42.355Z,99.08
2022-12-01T09:33:42.348Z,99.08
2022-12-01T09:34:42.331Z,98.87
2022-12-01T09:35:42.313Z,98.97
2022-12-01T09:36:42.308Z,98.87
2022-12-01T09:37:42.294Z,98.87
2022-12-01T09:38:42.299Z,99.08
2022-12-01T09:39:42.271Z,99.08
2022-12-01T09:40:42.275Z,99.08
2022-12-01T09:41:42.252Z,99.08
2022-12-01T09:42:42.244Z,98.87
2022-12-01T09:43:42.237Z,99.08
2022-12-01T09:44:42.244Z,99.08
2022-12-01T09:45:42.206Z,98.77
2022-12-01T09:46:42.245Z,98.77
2022-12-01T09:47:42.183Z,98.87
2022-12-01T09:48:42.190Z,98.77
2022-12-01T09:49:42.170Z,98.56
2022-12-01T09:50:42.155Z,98.56
2022-12-01T09:51:42.140Z,98.66
2022-12-01T09:52:42.133Z,98.87
2022-12-01T09:53:42.167Z,98.77
2022-12-01T09:54:42.145Z,98.66
2022-12-01T09:55:42.102Z,98.56
2022-12-01T09:56:42.088Z,98.56
2022-12-01T09:57:42.075Z,98.46
2022-12-01T09:58:42.076Z,98.66
2022-12-01T09:59:42.058Z,98.56
2022-12-01T10:00:42.065Z,98.66
2022-12-01T10:01:42.097Z,98.46
2022-12-01T10:02:42.021Z,98.15
2022-12-01T10:03:42.023Z,98.25
2022-12-01T10:04:42.001Z,98.25
2022-12-01T10:06:02.903Z,97.94
2022-12-01T10:06:42.069Z,97.94
2022-12-01T10:07:42.001Z,97.94
2022-12-01T10:08:41.970Z,97.94
2022-12-01T10:09:41.955Z,98.15
2022-12-01T10:10:41.935Z,98.10
2022-12-01T10:11:41.968Z,97.69
2022-12-01T10:12:41.935Z,97.69
2022-12-01T10:13:43.854Z,97.79
2022-12-01T10:14:41.891Z,97.79
2022-12-01T10:15:41.883Z,97.28
2022-12-01T10:16:41.933Z,97.28
2022-12-01T10:17:41.857Z,97.59
2022-12-01T10:18:41.864Z,97.49
2022-12-01T10:19:41.837Z,97.28
2022-12-01T10:20:41.820Z,96.86
2022-12-01T10:21:41.827Z,96.97
2022-12-01T10:22:41.797Z,96.76
2022-12-01T10:23:41.792Z,96.66
2022-12-01T10:24:41.790Z,96.76
2022-12-01T10:25:41.773Z,97.07
2022-12-01T10:26:41.761Z,97.17
2022-12-01T10:27:41.751Z,97.13
2022-12-01T10:28:41.734Z,97.13
2022-12-01T10:29:46.418Z,96.61
2022-12-01T10:30:41.719Z,96.30
2022-12-01T10:31:41.735Z,95.99
2022-12-01T10:32:41.691Z,95.99
2022-12-01T10:33:41.683Z,95.99
2022-12-01T10:34:41.676Z,95.68
2022-12-01T10:35:41.660Z,95.57
2022-12-01T10:36:41.644Z,95.37
2022-12-01T10:37:41.681Z,95.37
2022-12-01T10:38:41.628Z,95.17
2022-12-01T10:39:41.629Z,95.32
2022-12-01T10:40:41.603Z,94.96
2022-12-01T10:41:41.599Z,95.17
2022-12-01T10:42:41.580Z,94.96
2022-12-01T10:43:41.571Z,95.06
2022-12-01T10:44:41.566Z,94.54
2022-12-01T10:45:41.569Z,95.06
2022-12-01T10:46:41.547Z,95.17
2022-12-01T10:47:41.529Z,94.96
2022-12-01T10:48:41.516Z,95.48
2022-12-01T10:49:41.517Z,94.96
2022-12-01T10:50:41.492Z,94.75
2022-12-01T10:51:41.488Z,95.06
2022-12-01T10:52:41.481Z,94.96
2022-12-01T10:53:41.465Z,94.65
2022-12-01T10:54:41.458Z,94.85
2022-12-01T10:55:46.501Z,94.54
2022-12-01T10:56:41.436Z,94.54
2022-12-01T10:57:41.423Z,94.40
2022-12-01T10:58:41.407Z,94.09
2022-12-01T10:59:41.411Z,94.09
2022-12-01T11:00:59.640Z,93.88
2022-12-01T11:01:41.577Z,92.95
2022-12-01T11:02:41.497Z,93.16
2022-12-01T11:03:41.454Z,93.16
2022-12-01T11:04:41.352Z,92.95
2022-12-01T11:05:41.335Z,92.95
2022-12-01T11:06:41.319Z,92.74
2022-12-01T11:07:41.341Z,92.95
2022-12-01T11:08:41.297Z,92.64
2022-12-01T11:09:41.306Z,92.85
2022-12-01T11:10:41.277Z,92.85
2022-12-01T11:11:41.274Z,92.74
2022-12-01T11:12:41.260Z,92.64
2022-12-01T11:13:41.248Z,92.85
2022-12-01T11:14:41.240Z,92.13
2022-12-01T11:15:41.225Z,92.44
2022-12-01T11:16:41.282Z,92.33
2022-12-01T11:17:41.215Z,92.58
2022-12-01T11:18:41.239Z,92.38
2022-12-01T11:19:41.353Z,92.64
2022-12-01T11:20:41.211Z,92.85
2022-12-01T11:21:41.162Z,92.44
2022-12-01T11:22:41.147Z,92.44
2022-12-01T11:23:41.139Z,92.64
2022-12-01T11:24:41.133Z,92.23
2022-12-01T11:25:41.119Z,92.44
2022-12-01T11:26:41.101Z,92.64
2022-12-01T11:27:41.096Z,92.23
2022-12-01T11:28:41.092Z,91.92
2022-12-01T11:29:41.084Z,92.02
2022-12-01T11:30:41.059Z,91.71
2022-12-01T11:31:41.118Z,92.13
2022-12-01T11:32:41.037Z,92.33
2022-12-01T11:33:41.033Z,92.54
2022-12-01T11:34:41.025Z,91.92
2022-12-01T11:35:41.009Z,92.23
2022-12-01T11:36:40.993Z,92.23
2022-12-01T11:37:42.004Z,92.33
2022-12-01T11:38:40.972Z,92.44
2022-12-01T11:39:40.972Z,91.92
2022-12-01T11:40:40.948Z,92.23
2022-12-01T11:41:40.942Z,92.23
2022-12-01T11:42:40.929Z,92.27
2022-12-01T11:43:46.513Z,92.38
2022-12-01T11:44:51.483Z,92.48
2022-12-01T11:45:40.973Z,92.54
2022-12-01T11:46:50.054Z,92.64
2022-12-01T11:47:40.883Z,92.74
2022-12-01T11:48:40.864Z,92.44
2022-12-01T11:49:46.756Z,92.44
2022-12-01T11:50:40.855Z,92.38
2022-12-01T11:51:40.834Z,92.68
2022-12-01T11:52:40.821Z,92.38
2022-12-01T11:53:40.813Z,92.68
2022-12-01T11:54:40.796Z,92.68
2022-12-01T11:55:40.802Z,92.68
2022-12-01T11:56:40.778Z,92.89
2022-12-01T11:57:40.768Z,92.79
2022-12-01T11:58:40.814Z,92.48
2022-12-01T11:59:40.750Z,92.68
2022-12-01T12:00:40.745Z,92.89
2022-12-01T12:01:40.733Z,93.10
2022-12-01T12:02:40.742Z,93.41
2022-12-01T12:03:40.723Z,93.41
2022-12-01T12:04:40.690Z,93.41
2022-12-01T12:05:40.694Z,93.30
2022-12-01T12:06:40.881Z,93.51
2022-12-01T12:07:40.708Z,93.72
2022-12-01T12:08:40.680Z,93.30
2022-12-01T12:09:45.063Z,93.30
2022-12-01T12:10:40.702Z,93.41
2022-12-01T12:11:40.615Z,93.41
2022-12-01T12:12:40.601Z,93.41
2022-12-01T12:13:40.594Z,93.62
2022-12-01T12:14:40.589Z,93.30
2022-12-01T12:15:40.607Z,93.20
2022-12-01T12:16:40.557Z,93.51
2022-12-01T12:17:40.611Z,93.30
2022-12-01T12:18:40.537Z,93.20
2022-12-01T12:20:06.239Z,93.26
2022-12-01T12:20:40.530Z,93.05
2022-12-01T12:21:40.507Z,92.85
2022-12-01T12:22:40.533Z,92.79
2022-12-01T12:23:40.484Z,93.05
2022-12-01T12:24:40.468Z,92.74
2022-12-01T12:25:40.473Z,92.54
2022-12-01T12:26:40.446Z,92.33
2022-12-01T12:27:40.483Z,92.33
2022-12-01T12:28:40.424Z,91.82
2022-12-01T12:29:40.420Z,92.23
2022-12-01T12:30:40.475Z,92.02
2022-12-01T12:31:40.395Z,91.71
2022-12-01T12:32:40.384Z,92.44
2022-12-01T12:33:40.369Z,92.02
2022-12-01T12:34:40.369Z,91.92
2022-12-01T12:35:40.358Z,92.33
2022-12-01T12:36:40.343Z,91.50
2022-12-01T12:37:40.333Z,91.82
2022-12-01T12:38:40.322Z,92.02
2022-12-01T12:39:40.304Z,92.23
2022-12-01T12:40:40.308Z,92.85
2022-12-01T12:41:40.281Z,92.54
2022-12-01T12:42:40.283Z,92.44
2022-12-01T12:43:40.266Z,91.82
2022-12-01T12:44:40.255Z,91.92
2022-12-01T12:45:40.260Z,91.50
2022-12-01T12:46:40.297Z,91.82
2022-12-01T12:47:40.216Z,92.33
2022-12-01T12:48:57.287Z,92.23
2022-12-01T12:49:40.206Z,92.02
2022-12-01T12:50:40.210Z,91.50
2022-12-01T12:51:40.176Z,91.82
2022-12-01T12:52:40.166Z,91.55